createdAt,value
2018-10-06T00:00:23.773Z,99.90
2018-10-06T00:02:53.418Z,99.90
2018-10-06T00:05:23.099Z,99.90
2018-10-06T00:07:52.982Z,99.90
2018-10-06T00:10:22.584Z,99.90
2018-10-06T00:13:00.297Z,99.90
2018-10-06T00:15:31.902Z,99.90
2018-10-06T00:18:01.449Z,99.90
2018-10-06T00:20:31.325Z,99.90
2018-10-06T00:23:00.945Z,99.90
2018-10-06T00:25:30.562Z,99.90
2018-10-06T00:28:00.227Z,99.90
2018-10-06T00:30:31.094Z,99.90
2018-10-06T00:33:00.709Z,99.90
2018-10-06T00:35:30.873Z,99.90
2018-10-06T00:38:00.464Z,99.90
2018-10-06T00:40:30.022Z,99.90
2018-10-06T00:42:59.921Z,99.90
2018-10-06T00:45:29.808Z,99.90
2018-10-06T00:47:59.371Z,99.90
2018-10-06T00:50:29.301Z,99.90
2018-10-06T00:52:58.865Z,99.90
2018-10-06T00:55:52.388Z,99.90
2018-10-06T00:58:22.353Z,99.90
2018-10-06T01:00:52.055Z,99.90
2018-10-06T01:03:22.162Z,99.90
2018-10-06T01:05:51.766Z,99.90
2018-10-06T01:08:21.770Z,99.90
2018-10-06T01:10:51.419Z,99.90
2018-10-06T01:13:35.044Z,99.90
2018-10-06T01:16:04.789Z,99.90
2018-10-06T01:18:34.406Z,99.90
2018-10-06T01:21:09.082Z,99.90
2018-10-06T01:23:39.114Z,99.90
2018-10-06T01:26:08.858Z,99.90
2018-10-06T01:28:38.548Z,99.90
2018-10-06T01:31:14.162Z,99.90
2018-10-06T01:33:43.857Z,99.90
2018-10-06T01:36:13.586Z,99.90
2018-10-06T01:38:43.791Z,99.90
2018-10-06T01:41:18.053Z,99.90
2018-10-06T01:43:47.811Z,99.90
2018-10-06T01:46:17.406Z,99.90
2018-10-06T01:48:47.406Z,99.90
2018-10-06T01:51:17.026Z,99.90
2018-10-06T01:53:46.629Z,99.90
2018-10-06T01:56:16.319Z,99.90
2018-10-06T01:58:48.257Z,99.90
2018-10-06T02:01:17.832Z,99.90
2018-10-06T02:03:47.363Z,99.90
2018-10-06T02:06:20.514Z,99.90
2018-10-06T02:08:50.079Z,99.90
2018-10-06T02:11:19.527Z,99.90
2018-10-06T02:13:49.746Z,99.90
2018-10-06T02:16:20.783Z,99.90
2018-10-06T02:18:50.289Z,99.90
2018-10-06T02:21:19.817Z,99.90
2018-10-06T02:23:58.970Z,99.90
2018-10-06T02:26:28.418Z,99.90
2018-10-06T02:28:58.037Z,99.90
2018-10-06T02:31:27.863Z,99.90
2018-10-06T02:34:04.231Z,99.90
2018-10-06T02:36:34.074Z,99.90
2018-10-06T02:39:04.087Z,99.90
2018-10-06T02:41:42.675Z,99.90
2018-10-06T02:44:12.147Z,99.90
2018-10-06T02:46:41.559Z,99.90
2018-10-06T02:49:11.053Z,99.90
2018-10-06T02:51:40.554Z,99.90
2018-10-06T02:54:09.987Z,99.90
2018-10-06T02:56:39.570Z,99.90
2018-10-06T02:59:09.338Z,99.90
2018-10-06T03:01:38.747Z,99.90
2018-10-06T03:04:08.538Z,99.90
2018-10-06T03:06:37.967Z,99.90
2018-10-06T03:09:09.002Z,99.90
2018-10-06T03:11:38.594Z,99.90
2018-10-06T03:14:10.366Z,99.90
2018-10-06T03:16:39.976Z,99.90
2018-10-06T03:19:09.457Z,99.90
2018-10-06T03:21:39.083Z,99.90
2018-10-06T03:24:08.666Z,99.90
2018-10-06T03:26:38.114Z,99.90
2018-10-06T03:29:07.905Z,99.90
2018-10-06T03:31:37.525Z,99.90
2018-10-06T03:34:07.022Z,99.90
2018-10-06T03:36:37.808Z,99.90
2018-10-06T03:39:08.578Z,99.90
2018-10-06T03:41:38.108Z,99.90
2018-10-06T03:44:07.570Z,99.90
2018-10-06T03:46:43.364Z,99.90
2018-10-06T03:49:12.891Z,99.90
2018-10-06T03:51:42.745Z,99.90
2018-10-06T03:54:13.443Z,99.90
2018-10-06T03:56:44.232Z,99.90
2018-10-06T03:59:14.383Z,99.90
2018-10-06T04:01:43.885Z,99.90
2018-10-06T04:04:14.656Z,99.90
2018-10-06T04:06:44.399Z,99.90
2018-10-06T04:09:13.866Z,99.90
2018-10-06T04:11:43.341Z,99.90
2018-10-06T04:14:13.186Z,99.90
2018-10-06T04:16:42.759Z,99.90
2018-10-06T04:19:12.223Z,99.90
2018-10-06T04:21:46.230Z,99.90
2018-10-06T04:24:16.531Z,99.90
2018-10-06T04:26:46.061Z,99.90
2018-10-06T04:29:16.182Z,99.90
2018-10-06T04:31:45.622Z,99.90
2018-10-06T04:34:15.241Z,99.90
2018-10-06T04:36:45.398Z,99.90
2018-10-06T04:39:15.861Z,99.90
2018-10-06T04:41:45.398Z,99.90
2018-10-06T04:44:19.048Z,99.90
2018-10-06T04:46:49.443Z,99.90
2018-10-06T04:49:19.351Z,99.90
2018-10-06T04:51:48.839Z,99.90
2018-10-06T04:54:18.369Z,99.90
2018-10-06T04:56:48.396Z,99.90
2018-10-06T04:59:24.125Z,99.90
2018-10-06T05:01:54.579Z,99.90
2018-10-06T05:04:24.300Z,99.90
2018-10-06T05:06:55.713Z,99.90
2018-10-06T05:09:25.342Z,99.90
2018-10-06T05:11:54.987Z,99.90
2018-10-06T05:14:24.657Z,99.90
2018-10-06T05:17:00.753Z,99.90
2018-10-06T05:19:30.192Z,99.90
2018-10-06T05:22:00.368Z,99.90
2018-10-06T05:24:30.050Z,99.90
2018-10-06T05:27:06.460Z,99.90
2018-10-06T05:29:36.235Z,99.90
2018-10-06T05:32:06.558Z,99.90
2018-10-06T05:34:36.283Z,99.90
2018-10-06T05:37:06.053Z,99.90
2018-10-06T05:39:35.954Z,99.90
2018-10-06T05:42:05.451Z,99.90
2018-10-06T05:44:39.569Z,99.90
2018-10-06T05:47:10.312Z,99.90
2018-10-06T05:49:39.947Z,99.90
2018-10-06T05:52:10.116Z,99.90
2018-10-06T05:54:39.666Z,99.90
2018-10-06T05:57:09.365Z,99.90
2018-10-06T05:59:38.886Z,99.90
2018-10-06T06:02:08.570Z,99.90
2018-10-06T06:04:38.466Z,99.90
2018-10-06T06:07:09.650Z,99.90
2018-10-06T06:09:39.252Z,99.90
2018-10-06T06:12:08.806Z,99.90
2018-10-06T06:14:38.624Z,99.90
2018-10-06T06:17:08.843Z,99.90
2018-10-06T06:19:38.528Z,99.90
2018-10-06T06:22:08.124Z,99.90
2018-10-06T06:24:37.764Z,99.90
2018-10-06T06:27:07.828Z,99.90
2018-10-06T06:29:37.974Z,99.90
2018-10-06T06:32:08.715Z,99.90
2018-10-06T06:34:38.389Z,99.90
2018-10-06T06:37:17.913Z,99.90
2018-10-06T06:39:47.627Z,99.90
2018-10-06T06:42:18.430Z,99.90
2018-10-06T06:44:48.062Z,99.90
2018-10-06T06:47:18.667Z,99.90
2018-10-06T06:49:49.274Z,99.90
2018-10-06T06:52:19.183Z,99.90
2018-10-06T06:54:48.877Z,99.90
2018-10-06T06:57:19.474Z,99.90
2018-10-06T06:59:49.391Z,99.90
2018-10-06T07:02:19.474Z,99.90
2018-10-06T07:04:49.411Z,99.90
2018-10-06T07:07:19.134Z,99.90
2018-10-06T07:09:49.985Z,99.90
2018-10-06T07:12:19.865Z,99.90
2018-10-06T07:14:52.584Z,99.90
2018-10-06T07:17:22.280Z,99.90
2018-10-06T07:19:51.837Z,99.90
2018-10-06T07:22:22.666Z,99.90
2018-10-06T07:24:53.236Z,99.90
2018-10-06T07:27:22.934Z,99.90
2018-10-06T07:29:52.986Z,99.90
2018-10-06T07:32:22.782Z,99.90
2018-10-06T07:34:52.433Z,99.90
2018-10-06T07:37:22.182Z,99.90
2018-10-06T07:39:52.018Z,99.90
2018-10-06T07:42:21.670Z,99.90
2018-10-06T07:44:51.626Z,99.90
2018-10-06T07:47:21.223Z,99.90
2018-10-06T07:49:50.805Z,99.90
2018-10-06T07:52:23.743Z,99.90
2018-10-06T07:54:53.788Z,99.90
2018-10-06T07:57:23.503Z,99.90
2018-10-06T07:59:54.490Z,99.90
2018-10-06T08:02:25.033Z,99.90
2018-10-06T08:04:56.414Z,99.90
2018-10-06T08:07:25.945Z,99.90
2018-10-06T08:09:56.776Z,99.90
2018-10-06T08:12:26.440Z,99.90
2018-10-06T08:14:56.134Z,99.90
2018-10-06T08:17:26.246Z,99.90
2018-10-06T08:19:56.586Z,99.90
2018-10-06T08:22:26.426Z,99.90
2018-10-06T08:24:56.197Z,99.90
2018-10-06T08:27:26.251Z,99.90
2018-10-06T08:29:56.335Z,99.90
2018-10-06T08:32:26.324Z,99.90
2018-10-06T08:34:56.117Z,99.90
2018-10-06T08:37:26.036Z,99.90
2018-10-06T08:39:55.891Z,99.90
2018-10-06T08:42:25.943Z,99.90
2018-10-06T08:44:56.931Z,99.90
2018-10-06T08:47:27.679Z,99.90
2018-10-06T08:49:57.553Z,99.90
2018-10-06T08:52:27.628Z,99.90
2018-10-06T08:54:57.307Z,99.20
2018-10-06T08:57:26.971Z,99.90
2018-10-06T08:59:57.978Z,99.90
2018-10-06T09:02:27.913Z,99.90
2018-10-06T09:04:57.541Z,99.90
2018-10-06T09:07:27.921Z,99.90
2018-10-06T09:09:57.592Z,99.90
2018-10-06T09:12:28.261Z,99.90
2018-10-06T09:15:00.247Z,99.90
2018-10-06T09:17:29.902Z,99.90
2018-10-06T09:19:59.631Z,99.90
2018-10-06T09:22:29.329Z,99.90
2018-10-06T09:24:58.916Z,99.20
2018-10-06T09:27:28.553Z,98.60
2018-10-06T09:30:00.728Z,98.40
2018-10-06T09:32:30.838Z,98.60
2018-10-06T09:35:00.803Z,98.90
2018-10-06T09:37:30.531Z,96.70
2018-10-06T09:40:00.215Z,97.70
2018-10-06T09:42:30.102Z,97.90
2018-10-06T09:45:03.758Z,95.90
2018-10-06T09:47:34.539Z,95.80
2018-10-06T09:50:05.229Z,95.50
2018-10-06T09:52:34.847Z,96.50
2018-10-06T09:55:04.777Z,96.80
2018-10-06T09:57:35.490Z,95.70
2018-10-06T10:00:17.771Z,96.60
2018-10-06T10:02:52.658Z,96.30
2018-10-06T10:05:34.322Z,95.10
2018-10-06T10:08:04.542Z,95.40
2018-10-06T10:10:34.513Z,94.90
2018-10-06T10:13:04.365Z,95.70
2018-10-06T10:15:36.308Z,95.30
2018-10-06T10:18:08.436Z,95.60
2018-10-06T10:20:38.376Z,93.90
2018-10-06T10:23:08.409Z,92.60
2018-10-06T10:25:38.899Z,93.60
2018-10-06T10:28:09.201Z,93.50
2018-10-06T10:30:42.416Z,94.60
2018-10-06T10:33:12.393Z,93.60
2018-10-06T10:35:42.374Z,93.30
2018-10-06T10:38:12.241Z,94.10
2018-10-06T10:40:42.755Z,93.40
2018-10-06T10:43:13.525Z,92.80
2018-10-06T10:45:43.538Z,92.50
2018-10-06T10:48:14.374Z,92.10
2018-10-06T10:50:44.666Z,92.40
2018-10-06T10:53:14.585Z,92.20
2018-10-06T10:55:44.192Z,93.40
2018-10-06T10:58:13.778Z,92.40
2018-10-06T11:00:43.951Z,91.90
2018-10-06T11:03:14.514Z,92.80
2018-10-06T11:05:44.495Z,91.10
2018-10-06T11:08:14.161Z,90.50
2018-10-06T11:10:44.248Z,91.20
2018-10-06T11:13:14.710Z,90.80
2018-10-06T11:15:53.502Z,90.90
2018-10-06T11:18:23.087Z,91.40
2018-10-06T11:20:53.274Z,92.00
2018-10-06T11:23:23.171Z,90.80
2018-10-06T11:25:52.962Z,91.20
2018-10-06T11:28:23.533Z,90.10
2018-10-06T11:30:53.123Z,90.60
2018-10-06T11:33:23.025Z,91.50
2018-10-06T11:35:54.878Z,90.80
2018-10-06T11:38:25.234Z,90.40
2018-10-06T11:40:54.932Z,91.10
2018-10-06T11:43:25.747Z,91.00
2018-10-06T11:45:55.824Z,90.70
2018-10-06T11:48:30.558Z,91.80
2018-10-06T11:51:00.328Z,91.60
2018-10-06T11:53:30.293Z,90.40
2018-10-06T11:56:00.357Z,91.10
2018-10-06T11:58:35.403Z,89.90
2018-10-06T12:01:05.128Z,89.80
2018-10-06T12:03:34.691Z,87.50
2018-10-06T12:06:04.306Z,87.60
2018-10-06T12:08:33.962Z,89.80
2018-10-06T12:11:03.723Z,87.10
2018-10-06T12:13:33.681Z,88.80
2018-10-06T12:16:03.718Z,87.80
2018-10-06T12:18:34.456Z,89.50
2018-10-06T12:21:05.147Z,90.20
2018-10-06T12:23:34.846Z,90.70
2018-10-06T12:26:04.684Z,91.10
2018-10-06T12:28:34.428Z,91.50
2018-10-06T12:31:04.514Z,91.30
2018-10-06T12:33:34.308Z,91.10
2018-10-06T12:36:04.872Z,91.30
2018-10-06T12:38:35.601Z,90.80
2018-10-06T12:41:06.789Z,90.30
2018-10-06T12:43:36.378Z,90.60
2018-10-06T12:46:13.110Z,91.20
2018-10-06T12:48:43.141Z,91.30
2018-10-06T12:51:13.204Z,91.60
2018-10-06T12:53:45.034Z,91.40
2018-10-06T12:56:15.742Z,91.00
2018-10-06T12:58:46.862Z,91.20
2018-10-06T13:01:16.690Z,91.30
2018-10-06T13:03:46.702Z,91.50
2018-10-06T13:06:16.309Z,91.00
2018-10-06T13:08:48.304Z,90.60
2018-10-06T13:11:19.055Z,91.10
2018-10-06T13:13:48.663Z,91.10
2018-10-06T13:16:19.934Z,90.40
2018-10-06T13:18:51.076Z,90.60
2018-10-06T13:21:20.662Z,90.40
2018-10-06T13:24:01.156Z,90.90
2018-10-06T13:26:35.918Z,90.80
2018-10-06T13:29:05.711Z,91.00
2018-10-06T13:31:36.014Z,91.20
2018-10-06T13:34:06.655Z,91.50
2018-10-06T13:36:37.688Z,91.40
2018-10-06T13:39:11.590Z,90.80
2018-10-06T13:41:41.458Z,90.90
2018-10-06T13:44:11.645Z,90.40
2018-10-06T13:46:42.409Z,91.20
2018-10-06T13:49:13.272Z,91.10
2018-10-06T13:51:42.826Z,91.30
2018-10-06T13:54:14.167Z,91.20
2018-10-06T13:56:44.946Z,91.20
2018-10-06T13:59:16.298Z,91.10
2018-10-06T14:01:55.921Z,90.90
2018-10-06T14:04:25.627Z,91.10
2018-10-06T14:06:56.084Z,90.80
2018-10-06T14:09:29.519Z,90.80
2018-10-06T14:12:00.593Z,91.10
2018-10-06T14:14:34.185Z,90.50
2018-10-06T14:17:04.048Z,90.80
2018-10-06T14:19:34.190Z,91.20
2018-10-06T14:22:05.005Z,91.80
2018-10-06T14:24:37.515Z,91.50
2018-10-06T14:27:07.257Z,91.30
2018-10-06T14:29:36.984Z,90.60
2018-10-06T14:32:06.800Z,90.40
2018-10-06T14:34:37.095Z,90.40
2018-10-06T14:37:07.531Z,90.90
2018-10-06T14:39:38.093Z,91.10
2018-10-06T14:42:08.776Z,91.70
2018-10-06T14:44:39.095Z,91.10
2018-10-06T14:47:12.540Z,91.40
2018-10-06T14:49:46.288Z,91.40
2018-10-06T14:52:18.889Z,91.20
2018-10-06T14:54:49.113Z,90.90
2018-10-06T14:57:19.632Z,90.90
2018-10-06T14:59:50.106Z,91.20
2018-10-06T15:02:20.224Z,91.40
2018-10-06T15:04:50.999Z,91.20
2018-10-06T15:07:20.946Z,91.50
2018-10-06T15:09:54.478Z,91.50
2018-10-06T15:12:24.846Z,91.60
2018-10-06T15:14:56.675Z,91.90
2018-10-06T15:17:28.241Z,92.00
2018-10-06T15:20:05.982Z,92.10
2018-10-06T15:22:35.680Z,92.20
2018-10-06T15:25:09.187Z,92.20
2018-10-06T15:27:38.978Z,92.20
2018-10-06T15:30:09.306Z,92.40
2018-10-06T15:32:39.691Z,92.80
2018-10-06T15:35:15.942Z,92.60
2018-10-06T15:37:45.611Z,92.60
2018-10-06T15:40:15.755Z,92.50
2018-10-06T15:42:45.649Z,92.80
2018-10-06T15:45:16.222Z,92.90
2018-10-06T15:47:46.324Z,93.10
2018-10-06T15:50:16.882Z,93.20
2018-10-06T15:52:47.376Z,93.10
2018-10-06T15:55:18.947Z,93.40
2018-10-06T15:57:49.159Z,93.50
2018-10-06T16:00:18.935Z,93.50
2018-10-06T16:02:49.670Z,93.40
2018-10-06T16:05:20.534Z,93.60
2018-10-06T16:07:51.938Z,93.40
2018-10-06T16:10:21.914Z,93.80
2018-10-06T16:12:52.870Z,94.00
2018-10-06T16:15:25.024Z,93.80
2018-10-06T16:17:54.732Z,94.00
2018-10-06T16:20:25.660Z,94.10
2018-10-06T16:22:55.887Z,94.20
2018-10-06T16:25:25.965Z,94.20
2018-10-06T16:27:57.149Z,94.20
2018-10-06T16:30:28.786Z,94.20
2018-10-06T16:32:59.255Z,94.20
2018-10-06T16:35:29.221Z,94.60
2018-10-06T16:37:58.896Z,94.90
2018-10-06T16:40:30.352Z,95.10
2018-10-06T16:43:02.481Z,95.30
2018-10-06T16:45:33.613Z,95.20
2018-10-06T16:48:07.195Z,95.30
2018-10-06T16:50:38.747Z,95.70
2018-10-06T16:53:08.705Z,95.80
2018-10-06T16:55:39.019Z,96.00
2018-10-06T16:58:08.667Z,96.10
2018-10-06T17:00:38.847Z,96.30
2018-10-06T17:03:19.627Z,96.50
2018-10-06T17:05:49.723Z,96.70
2018-10-06T17:08:20.413Z,96.90
2018-10-06T17:10:51.778Z,96.90
2018-10-06T17:13:24.388Z,97.10
2018-10-06T17:15:55.055Z,97.40
2018-10-06T17:18:27.942Z,97.60
2018-10-06T17:20:59.577Z,97.80
2018-10-06T17:23:31.285Z,97.70
2018-10-06T17:26:04.440Z,97.70
2018-10-06T17:28:35.960Z,97.70
2018-10-06T17:31:07.508Z,97.80
2018-10-06T17:33:40.424Z,97.80
2018-10-06T17:36:10.860Z,97.90
2018-10-06T17:38:41.644Z,98.10
2018-10-06T17:41:12.402Z,98.40
2018-10-06T17:43:42.616Z,98.50
2018-10-06T17:46:13.017Z,98.70
2018-10-06T17:48:55.880Z,98.90
2018-10-06T17:51:27.734Z,99.60
2018-10-06T17:54:03.035Z,99.90
2018-10-06T17:56:34.672Z,99.90
2018-10-06T17:59:07.335Z,99.90
2018-10-06T18:01:37.955Z,99.90
2018-10-06T18:04:08.838Z,99.90
2018-10-06T18:06:41.138Z,99.90
2018-10-06T18:09:11.885Z,99.90
2018-10-06T18:11:41.551Z,99.90
2018-10-06T18:14:11.504Z,99.90
2018-10-06T18:16:42.000Z,99.90
2018-10-06T18:19:11.762Z,99.90
2018-10-06T18:21:42.739Z,99.90
2018-10-06T18:24:13.431Z,99.90
2018-10-06T18:26:43.161Z,99.90
2018-10-06T18:29:14.824Z,99.90
2018-10-06T18:31:49.365Z,99.90
2018-10-06T18:34:19.944Z,99.90
2018-10-06T18:36:51.649Z,99.90
2018-10-06T18:39:42.568Z,99.90
2018-10-06T18:42:12.601Z,99.90
2018-10-06T18:44:42.871Z,99.90
2018-10-06T18:47:15.561Z,99.90
2018-10-06T18:49:47.690Z,99.90
2018-10-06T18:52:18.416Z,99.90
2018-10-06T18:54:49.440Z,99.90
2018-10-06T18:57:19.187Z,99.90
2018-10-06T18:59:51.424Z,99.90
2018-10-06T19:02:21.265Z,99.90
2018-10-06T19:04:51.153Z,99.90
2018-10-06T19:07:21.264Z,99.90
2018-10-06T19:09:53.091Z,99.90
2018-10-06T19:12:23.186Z,99.90
2018-10-06T19:14:56.790Z,99.90
2018-10-06T19:17:26.519Z,99.90
2018-10-06T19:19:56.220Z,99.90
2018-10-06T19:22:26.339Z,99.90
2018-10-06T19:24:56.246Z,99.90
2018-10-06T19:27:27.345Z,99.90
2018-10-06T19:29:57.544Z,99.90
2018-10-06T19:32:29.259Z,99.90
2018-10-06T19:35:00.517Z,99.90
2018-10-06T19:37:31.733Z,99.90
2018-10-06T19:40:05.128Z,99.90
2018-10-06T19:42:38.172Z,99.90
2018-10-06T19:45:10.902Z,99.90
2018-10-06T19:47:40.849Z,99.90
2018-10-06T19:50:11.250Z,99.90
2018-10-06T19:52:41.966Z,99.90
2018-10-06T19:55:11.937Z,99.90
2018-10-06T19:57:43.299Z,99.90
2018-10-06T20:00:12.930Z,99.90
2018-10-06T20:03:00.982Z,99.90
2018-10-06T20:05:31.002Z,99.90
2018-10-06T20:08:00.807Z,99.90
2018-10-06T20:10:34.665Z,99.90
2018-10-06T20:13:05.045Z,99.90
2018-10-06T20:15:34.852Z,99.90
2018-10-06T20:18:04.676Z,99.90
2018-10-06T20:20:34.778Z,99.90
2018-10-06T20:23:05.241Z,99.90
2018-10-06T20:25:35.062Z,99.90
2018-10-06T20:28:05.016Z,99.90
2018-10-06T20:30:34.832Z,99.90
2018-10-06T20:33:04.607Z,99.90
2018-10-06T20:35:36.003Z,99.90
2018-10-06T20:38:06.634Z,99.90
2018-10-06T20:40:36.801Z,99.90
2018-10-06T20:43:07.197Z,99.90
2018-10-06T20:45:46.110Z,99.90
2018-10-06T20:48:15.913Z,99.90
2018-10-06T20:50:45.850Z,99.90
2018-10-06T20:53:17.566Z,99.90
2018-10-06T20:55:48.463Z,99.90
2018-10-06T20:58:21.628Z,99.90
2018-10-06T21:00:52.947Z,99.90
2018-10-06T21:03:26.236Z,99.90
2018-10-06T21:05:56.302Z,99.90
2018-10-06T21:08:25.970Z,99.90
2018-10-06T21:10:55.587Z,99.90
2018-10-06T21:13:25.194Z,99.90
2018-10-06T21:15:54.872Z,99.90
2018-10-06T21:18:30.807Z,99.90
2018-10-06T21:21:02.237Z,99.90
2018-10-06T21:23:31.870Z,99.90
2018-10-06T21:26:03.027Z,99.90
2018-10-06T21:28:33.491Z,99.90
2018-10-06T21:31:03.213Z,99.90
2018-10-06T21:33:35.851Z,99.90
2018-10-06T21:36:12.723Z,99.90
2018-10-06T21:38:42.600Z,99.90
2018-10-06T21:41:12.367Z,99.90
2018-10-06T21:43:42.071Z,99.90
2018-10-06T21:46:11.932Z,99.90
2018-10-06T21:48:42.655Z,99.90
2018-10-06T21:51:17.351Z,99.90
2018-10-06T21:53:47.424Z,99.90
2018-10-06T21:56:17.203Z,99.90
2018-10-06T21:58:47.079Z,99.90
2018-10-06T22:01:30.611Z,99.90
2018-10-06T22:04:00.906Z,99.90
2018-10-06T22:06:30.643Z,99.90
2018-10-06T22:09:00.352Z,99.90
2018-10-06T22:11:29.909Z,99.90
2018-10-06T22:14:00.133Z,99.90
2018-10-06T22:16:30.854Z,99.90
2018-10-06T22:19:01.030Z,99.90
2018-10-06T22:21:32.978Z,99.90
2018-10-06T22:24:03.560Z,99.90
2018-10-06T22:26:34.724Z,99.90
2018-10-06T22:29:04.576Z,99.90
2018-10-06T22:31:34.493Z,99.90
2018-10-06T22:34:13.026Z,99.90
2018-10-06T22:36:43.687Z,99.90
2018-10-06T22:39:13.937Z,99.90
2018-10-06T22:41:43.651Z,99.90
2018-10-06T22:44:13.222Z,99.90
2018-10-06T22:46:43.440Z,99.90
2018-10-06T22:49:15.627Z,99.90
2018-10-06T22:51:53.041Z,99.90
2018-10-06T22:54:23.630Z,99.90
2018-10-06T22:56:54.082Z,99.90
2018-10-06T22:59:24.111Z,99.90
2018-10-06T23:01:54.244Z,99.90
2018-10-06T23:04:26.230Z,99.90
2018-10-06T23:06:55.906Z,99.90
2018-10-06T23:09:26.486Z,99.90
2018-10-06T23:11:56.355Z,99.90
2018-10-06T23:14:26.106Z,99.90
2018-10-06T23:16:55.981Z,99.90
2018-10-06T23:19:33.162Z,99.90
2018-10-06T23:22:02.932Z,99.90
2018-10-06T23:24:32.683Z,99.90
2018-10-06T23:27:03.143Z,99.90
2018-10-06T23:29:33.428Z,99.90
2018-10-06T23:32:03.902Z,99.90
2018-10-06T23:34:33.735Z,99.90
2018-10-06T23:37:08.443Z,99.90
2018-10-06T23:39:38.227Z,99.90
2018-10-06T23:42:07.989Z,99.90
2018-10-06T23:44:39.862Z,99.90
2018-10-06T23:47:09.947Z,99.90
2018-10-06T23:49:40.746Z,99.90
2018-10-06T23:52:10.416Z,99.90
2018-10-06T23:54:40.121Z,99.90
2018-10-06T23:57:09.802Z,99.90
2018-10-06T23:59:40.507Z,99.90
